sensor_id;sensor_type;location;lat;lon;timestamp;P1;durP1;ratioP1;P2;durP2;ratioP2
16624;SDS011;8426;48.496;9.098;2022-11-21T00:04:22;3.03;;;0.63;;
16624;SDS011;8426;48.496;9.098;2022-11-21T00:09:29;1.27;;;0.45;;
16624;SDS011;8426;48.496;9.098;2022-11-21T00:14:35;0.68;;;0.40;;
16624;SDS011;8426;48.496;9.098;2022-11-21T00:19:39;2.03;;;0.73;;
16624;SDS011;8426;48.496;9.098;2022-11-21T00:24:42;3.50;;;0.68;;
16624;SDS011;8426;48.496;9.098;2022-11-21T00:29:54;1.23;;;0.50;;
16624;SDS011;8426;48.496;9.098;2022-11-21T00:34:57;2.07;;;0.80;;
16624;SDS011;8426;48.496;9.098;2022-11-21T00:40:01;2.37;;;0.70;;
16624;SDS011;8426;48.496;9.098;2022-11-21T00:45:07;1.43;;;0.60;;
16624;SDS011;8426;48.496;9.098;2022-11-21T00:50:13;1.87;;;0.63;;
16624;SDS011;8426;48.496;9.098;2022-11-21T00:55:17;4.77;;;0.80;;
16624;SDS011;8426;48.496;9.098;2022-11-21T01:00:22;3.50;;;0.70;;
16624;SDS011;8426;48.496;9.098;2022-11-21T01:05:26;4.17;;;0.87;;
16624;SDS011;8426;48.496;9.098;2022-11-21T01:10:31;1.73;;;0.60;;
16624;SDS011;8426;48.496;9.098;2022-11-21T01:15:37;2.83;;;0.90;;
16624;SDS011;8426;48.496;9.098;2022-11-21T01:20:40;0.60;;;0.60;;
16624;SDS011;8426;48.496;9.098;2022-11-21T01:25:44;0.90;;;0.60;;
16624;SDS011;8426;48.496;9.098;2022-11-21T01:30:55;4.80;;;0.80;;
16624;SDS011;8426;48.496;9.098;2022-11-21T01:36:08;3.23;;;0.80;;
16624;SDS011;8426;48.496;9.098;2022-11-21T01:41:13;0.82;;;0.60;;
16624;SDS011;8426;48.496;9.098;2022-11-21T01:46:22;4.22;;;1.13;;
16624;SDS011;8426;48.496;9.098;2022-11-21T01:51:27;3.67;;;0.70;;
16624;SDS011;8426;48.496;9.098;2022-11-21T01:56:34;3.77;;;0.80;;
16624;SDS011;8426;48.496;9.098;2022-11-21T02:01:44;2.27;;;0.67;;
16624;SDS011;8426;48.496;9.098;2022-11-21T02:06:51;6.28;;;0.85;;
16624;SDS011;8426;48.496;9.098;2022-11-21T02:11:56;3.53;;;0.70;;
16624;SDS011;8426;48.496;9.098;2022-11-21T02:17:05;3.17;;;0.87;;
16624;SDS011;8426;48.496;9.098;2022-11-21T02:22:11;3.43;;;0.80;;
16624;SDS011;8426;48.496;9.098;2022-11-21T02:27:21;2.00;;;0.80;;
16624;SDS011;8426;48.496;9.098;2022-11-21T02:32:30;3.07;;;0.90;;
16624;SDS011;8426;48.496;9.098;2022-11-21T02:37:35;4.00;;;0.90;;
16624;SDS011;8426;48.496;9.098;2022-11-21T02:42:40;6.80;;;1.40;;
16624;SDS011;8426;48.496;9.098;2022-11-21T02:47:53;3.20;;;0.63;;
16624;SDS011;8426;48.496;9.098;2022-11-21T02:53:11;5.63;;;0.82;;
16624;SDS011;8426;48.496;9.098;2022-11-21T02:58:17;1.33;;;0.60;;
16624;SDS011;8426;48.496;9.098;2022-11-21T03:03:21;4.85;;;0.80;;
16624;SDS011;8426;48.496;9.098;2022-11-21T03:08:25;1.00;;;0.63;;
16624;SDS011;8426;48.496;9.098;2022-11-21T03:13:30;2.10;;;0.57;;
16624;SDS011;8426;48.496;9.098;2022-11-21T03:18:33;4.10;;;0.87;;
16624;SDS011;8426;48.496;9.098;2022-11-21T03:23:38;3.50;;;0.80;;
16624;SDS011;8426;48.496;9.098;2022-11-21T03:28:43;0.80;;;0.60;;
16624;SDS011;8426;48.496;9.098;2022-11-21T03:33:46;1.17;;;0.50;;
16624;SDS011;8426;48.496;9.098;2022-11-21T03:38:49;0.57;;;0.47;;
16624;SDS011;8426;48.496;9.098;2022-11-21T03:43:54;4.40;;;0.60;;
16624;SDS011;8426;48.496;9.098;2022-11-21T03:48:58;1.17;;;0.60;;
16624;SDS011;8426;48.496;9.098;2022-11-21T03:54:02;0.93;;;0.37;;
16624;SDS011;8426;48.496;9.098;2022-11-21T03:59:07;0.90;;;0.50;;
16624;SDS011;8426;48.496;9.098;2022-11-21T04:04:12;0.50;;;0.50;;
16624;SDS011;8426;48.496;9.098;2022-11-21T04:09:15;0.47;;;0.40;;
16624;SDS011;8426;48.496;9.098;2022-11-21T04:14:20;0.50;;;0.50;;
16624;SDS011;8426;48.496;9.098;2022-11-21T04:19:26;1.20;;;0.67;;
16624;SDS011;8426;48.496;9.098;2022-11-21T04:24:30;2.10;;;0.50;;
16624;SDS011;8426;48.496;9.098;2022-11-21T04:29:36;0.40;;;0.40;;
16624;SDS011;8426;48.496;9.098;2022-11-21T04:34:39;3.80;;;0.43;;
16624;SDS011;8426;48.496;9.098;2022-11-21T04:39:43;0.67;;;0.50;;
16624;SDS011;8426;48.496;9.098;2022-11-21T04:44:47;0.50;;;0.50;;
16624;SDS011;8426;48.496;9.098;2022-11-21T04:49:53;0.40;;;0.40;;
16624;SDS011;8426;48.496;9.098;2022-11-21T04:54:57;2.03;;;0.40;;
16624;SDS011;8426;48.496;9.098;2022-11-21T05:00:02;0.53;;;0.40;;
16624;SDS011;8426;48.496;9.098;2022-11-21T05:05:07;0.30;;;0.30;;
16624;SDS011;8426;48.496;9.098;2022-11-21T05:10:13;0.30;;;0.30;;
16624;SDS011;8426;48.496;9.098;2022-11-21T05:15:18;1.33;;;0.40;;
16624;SDS011;8426;48.496;9.098;2022-11-21T05:20:25;1.27;;;0.40;;
16624;SDS011;8426;48.496;9.098;2022-11-21T05:25:31;0.30;;;0.30;;
16624;SDS011;8426;48.496;9.098;2022-11-21T05:30:36;0.80;;;0.50;;
16624;SDS011;8426;48.496;9.098;2022-11-21T05:35:40;1.23;;;0.40;;
16624;SDS011;8426;48.496;9.098;2022-11-21T05:40:44;0.40;;;0.40;;
16624;SDS011;8426;48.496;9.098;2022-11-21T05:45:49;0.30;;;0.30;;
16624;SDS011;8426;48.496;9.098;2022-11-21T05:50:59;0.40;;;0.40;;
16624;SDS011;8426;48.496;9.098;2022-11-21T05:56:12;0.40;;;0.40;;
16624;SDS011;8426;48.496;9.098;2022-11-21T06:01:35;0.40;;;0.40;;
16624;SDS011;8426;48.496;9.098;2022-11-21T06:07:06;0.77;;;0.30;;
16624;SDS011;8426;48.496;9.098;2022-11-21T06:12:12;0.50;;;0.40;;
16624;SDS011;8426;48.496;9.098;2022-11-21T06:17:17;3.83;;;0.50;;
16624;SDS011;8426;48.496;9.098;2022-11-21T06:22:20;0.40;;;0.40;;
16624;SDS011;8426;48.496;9.098;2022-11-21T06:27:24;0.47;;;0.47;;
16624;SDS011;8426;48.496;9.098;2022-11-21T06:32:29;3.60;;;0.70;;
16624;SDS011;8426;48.496;9.098;2022-11-21T06:37:43;1.53;;;0.63;;
16624;SDS011;8426;48.496;9.098;2022-11-21T06:42:53;1.27;;;0.77;;
16624;SDS011;8426;48.496;9.098;2022-11-21T06:48:01;3.30;;;0.80;;
16624;SDS011;8426;48.496;9.098;2022-11-21T06:53:05;6.90;;;0.80;;
16624;SDS011;8426;48.496;9.098;2022-11-21T06:58:08;0.73;;;0.70;;
16624;SDS011;8426;48.496;9.098;2022-11-21T07:03:13;4.33;;;0.73;;
16624;SDS011;8426;48.496;9.098;2022-11-21T07:08:17;5.83;;;1.10;;
16624;SDS011;8426;48.496;9.098;2022-11-21T07:13:21;1.90;;;1.00;;
16624;SDS011;8426;48.496;9.098;2022-11-21T07:18:26;1.83;;;1.03;;
16624;SDS011;8426;48.496;9.098;2022-11-21T07:23:30;5.53;;;1.10;;
16624;SDS011;8426;48.496;9.098;2022-11-21T07:28:34;8.43;;;1.20;;
16624;SDS011;8426;48.496;9.098;2022-11-21T07:33:39;8.37;;;1.50;;
16624;SDS011;8426;48.496;9.098;2022-11-21T07:38:44;4.53;;;1.00;;
16624;SDS011;8426;48.496;9.098;2022-11-21T07:43:48;5.50;;;1.00;;
16624;SDS011;8426;48.496;9.098;2022-11-21T07:48:53;5.70;;;1.55;;
16624;SDS011;8426;48.496;9.098;2022-11-21T07:54:03;10.73;;;1.10;;
16624;SDS011;8426;48.496;9.098;2022-11-21T07:59:07;4.73;;;1.30;;
16624;SDS011;8426;48.496;9.098;2022-11-21T08:04:12;6.17;;;1.10;;
16624;SDS011;8426;48.496;9.098;2022-11-21T08:09:15;7.00;;;1.13;;
16624;SDS011;8426;48.496;9.098;2022-11-21T08:14:24;7.57;;;1.10;;
16624;SDS011;8426;48.496;9.098;2022-11-21T08:19:30;8.13;;;1.00;;
16624;SDS011;8426;48.496;9.098;2022-11-21T08:24:33;1.05;;;0.73;;
16624;SDS011;8426;48.496;9.098;2022-11-21T08:29:37;2.45;;;0.80;;
16624;SDS011;8426;48.496;9.098;2022-11-21T08:34:46;2.33;;;1.08;;
16624;SDS011;8426;48.496;9.098;2022-11-21T08:39:59;7.75;;;1.00;;
16624;SDS011;8426;48.496;9.098;2022-11-21T08:45:03;5.55;;;0.82;;
16624;SDS011;8426;48.496;9.098;2022-11-21T08:50:09;5.68;;;0.82;;
16624;SDS011;8426;48.496;9.098;2022-11-21T08:55:12;3.65;;;0.82;;
16624;SDS011;8426;48.496;9.098;2022-11-21T09:00:16;5.72;;;0.80;;
16624;SDS011;8426;48.496;9.098;2022-11-21T09:05:28;8.15;;;0.98;;
16624;SDS011;8426;48.496;9.098;2022-11-21T09:10:32;3.78;;;0.75;;
16624;SDS011;8426;48.496;9.098;2022-11-21T09:15:41;2.53;;;0.50;;
16624;SDS011;8426;48.496;9.098;2022-11-21T09:21:04;1.60;;;0.60;;
16624;SDS011;8426;48.496;9.098;2022-11-21T09:26:09;5.80;;;0.82;;
16624;SDS011;8426;48.496;9.098;2022-11-21T09:31:14;3.78;;;1.00;;
16624;SDS011;8426;48.496;9.098;2022-11-21T09:36:18;5.15;;;1.23;;
16624;SDS011;8426;48.496;9.098;2022-11-21T09:41:31;4.00;;;1.00;;
16624;SDS011;8426;48.496;9.098;2022-11-21T09:46:54;2.28;;;0.90;;
16624;SDS011;8426;48.496;9.098;2022-11-21T09:52:07;2.63;;;0.80;;
16624;SDS011;8426;48.496;9.098;2022-11-21T09:57:13;3.67;;;1.08;;
16624;SDS011;8426;48.496;9.098;2022-11-21T10:02:19;3.53;;;0.80;;
16624;SDS011;8426;48.496;9.098;2022-11-21T10:07:28;5.28;;;0.80;;
16624;SDS011;8426;48.496;9.098;2022-11-21T10:12:35;3.42;;;0.82;;
16624;SDS011;8426;48.496;9.098;2022-11-21T10:17:52;5.28;;;0.80;;
16624;SDS011;8426;48.496;9.098;2022-11-21T10:23:21;6.28;;;0.82;;
16624;SDS011;8426;48.496;9.098;2022-11-21T10:28:41;4.70;;;0.80;;
16624;SDS011;8426;48.496;9.098;2022-11-21T10:33:52;5.55;;;1.02;;
16624;SDS011;8426;48.496;9.098;2022-11-21T10:39:10;3.67;;;0.90;;
16624;SDS011;8426;48.496;9.098;2022-11-21T10:44:22;2.88;;;1.13;;
16624;SDS011;8426;48.496;9.098;2022-11-21T10:49:45;2.17;;;0.70;;
16624;SDS011;8426;48.496;9.098;2022-11-21T10:55:05;4.88;;;0.70;;
16624;SDS011;8426;48.496;9.098;2022-11-21T11:00:19;10.20;;;0.80;;
16624;SDS011;8426;48.496;9.098;2022-11-21T11:05:24;4.32;;;0.80;;
16624;SDS011;8426;48.496;9.098;2022-11-21T11:10:31;1.48;;;0.60;;
16624;SDS011;8426;48.496;9.098;2022-11-21T11:15:36;3.28;;;0.73;;
16624;SDS011;8426;48.496;9.098;2022-11-21T11:21:13;2.13;;;0.80;;
16624;SDS011;8426;48.496;9.098;2022-11-21T11:26:28;2.50;;;0.50;;
16624;SDS011;8426;48.496;9.098;2022-11-21T11:31:38;2.92;;;0.80;;
16624;SDS011;8426;48.496;9.098;2022-11-21T11:36:59;4.07;;;0.82;;
16624;SDS011;8426;48.496;9.098;2022-11-21T11:42:19;5.60;;;0.90;;
16624;SDS011;8426;48.496;9.098;2022-11-21T11:47:58;2.17;;;0.88;;
16624;SDS011;8426;48.496;9.098;2022-11-21T11:53:05;3.55;;;0.80;;
16624;SDS011;8426;48.496;9.098;2022-11-21T11:58:19;2.38;;;0.95;;
16624;SDS011;8426;48.496;9.098;2022-11-21T12:03:29;3.63;;;0.50;;
16624;SDS011;8426;48.496;9.098;2022-11-21T12:08:47;5.32;;;0.80;;
16624;SDS011;8426;48.496;9.098;2022-11-21T12:13:56;2.92;;;0.85;;
16624;SDS011;8426;48.496;9.098;2022-11-21T12:19:12;6.80;;;1.15;;
16624;SDS011;8426;48.496;9.098;2022-11-21T12:24:17;4.32;;;0.63;;
16624;SDS011;8426;48.496;9.098;2022-11-21T12:29:26;8.23;;;0.93;;
16624;SDS011;8426;48.496;9.098;2022-11-21T12:34:44;2.75;;;0.85;;
16624;SDS011;8426;48.496;9.098;2022-11-21T12:40:08;3.85;;;0.73;;
16624;SDS011;8426;48.496;9.098;2022-11-21T12:45:28;2.22;;;1.02;;
16624;SDS011;8426;48.496;9.098;2022-11-21T12:50:34;1.92;;;0.68;;
16624;SDS011;8426;48.496;9.098;2022-11-21T12:56:03;5.25;;;0.93;;
16624;SDS011;8426;48.496;9.098;2022-11-21T13:01:20;3.03;;;0.73;;
16624;SDS011;8426;48.496;9.098;2022-11-21T13:06:31;1.17;;;0.60;;
16624;SDS011;8426;48.496;9.098;2022-11-21T13:11:42;2.15;;;0.77;;
16624;SDS011;8426;48.496;9.098;2022-11-21T13:17:09;2.28;;;0.73;;
16624;SDS011;8426;48.496;9.098;2022-11-21T13:33:50;4.93;;;0.80;;
16624;SDS011;8426;48.496;9.098;2022-11-21T13:44:38;2.58;;;0.90;;
16624;SDS011;8426;48.496;9.098;2022-11-21T13:49:45;2.63;;;1.00;;
16624;SDS011;8426;48.496;9.098;2022-11-21T14:00:31;4.43;;;0.80;;
16624;SDS011;8426;48.496;9.098;2022-11-21T14:05:54;5.22;;;0.80;;
16624;SDS011;8426;48.496;9.098;2022-11-21T14:11:19;2.47;;;0.70;;
16624;SDS011;8426;48.496;9.098;2022-11-21T14:16:26;5.18;;;1.25;;
16624;SDS011;8426;48.496;9.098;2022-11-21T14:21:37;4.95;;;0.65;;
16624;SDS011;8426;48.496;9.098;2022-11-21T14:26:42;2.65;;;0.60;;
16624;SDS011;8426;48.496;9.098;2022-11-21T14:31:48;1.77;;;0.75;;
16624;SDS011;8426;48.496;9.098;2022-11-21T14:36:53;2.30;;;0.80;;
16624;SDS011;8426;48.496;9.098;2022-11-21T14:41:59;3.00;;;0.98;;
16624;SDS011;8426;48.496;9.098;2022-11-21T14:47:12;3.85;;;1.38;;
16624;SDS011;8426;48.496;9.098;2022-11-21T14:52:26;5.40;;;1.42;;
16624;SDS011;8426;48.496;9.098;2022-11-21T14:57:32;4.60;;;1.92;;
16624;SDS011;8426;48.496;9.098;2022-11-21T15:02:39;3.40;;;1.65;;
16624;SDS011;8426;48.496;9.098;2022-11-21T15:07:45;5.50;;;1.95;;
16624;SDS011;8426;48.496;9.098;2022-11-21T15:12:51;3.95;;;1.98;;
16624;SDS011;8426;48.496;9.098;2022-11-21T15:18:01;6.50;;;2.00;;
16624;SDS011;8426;48.496;9.098;2022-11-21T15:23:28;5.88;;;2.08;;
16624;SDS011;8426;48.496;9.098;2022-11-21T15:28:32;4.68;;;1.40;;
16624;SDS011;8426;48.496;9.098;2022-11-21T15:33:52;5.03;;;1.42;;
16624;SDS011;8426;48.496;9.098;2022-11-21T15:39:18;8.25;;;2.40;;
16624;SDS011;8426;48.496;9.098;2022-11-21T15:44:25;11.38;;;3.42;;
16624;SDS011;8426;48.496;9.098;2022-11-21T15:49:29;7.60;;;2.03;;
16624;SDS011;8426;48.496;9.098;2022-11-21T15:54:53;7.57;;;3.47;;
16624;SDS011;8426;48.496;9.098;2022-11-21T15:59:57;12.77;;;5.82;;
16624;SDS011;8426;48.496;9.098;2022-11-21T16:05:00;16.15;;;6.15;;
16624;SDS011;8426;48.496;9.098;2022-11-21T16:10:07;25.77;;;8.73;;
16624;SDS011;8426;48.496;9.098;2022-11-21T16:20:42;13.25;;;5.57;;
16624;SDS011;8426;48.496;9.098;2022-11-21T16:25:57;26.75;;;8.00;;
16624;SDS011;8426;48.496;9.098;2022-11-21T16:31:16;11.32;;;3.92;;
16624;SDS011;8426;48.496;9.098;2022-11-21T16:36:22;5.43;;;2.05;;
16624;SDS011;8426;48.496;9.098;2022-11-21T16:41:31;11.40;;;3.47;;
16624;SDS011;8426;48.496;9.098;2022-11-21T16:46:38;10.75;;;3.78;;
16624;SDS011;8426;48.496;9.098;2022-11-21T16:51:44;6.07;;;1.77;;
16624;SDS011;8426;48.496;9.098;2022-11-21T16:56:48;4.37;;;1.30;;
16624;SDS011;8426;48.496;9.098;2022-11-21T17:01:52;3.43;;;1.60;;
16624;SDS011;8426;48.496;9.098;2022-11-21T17:07:01;7.70;;;2.23;;
16624;SDS011;8426;48.496;9.098;2022-11-21T17:12:18;6.90;;;2.77;;
16624;SDS011;8426;48.496;9.098;2022-11-21T17:17:22;11.03;;;3.30;;
16624;SDS011;8426;48.496;9.098;2022-11-21T17:22:26;5.03;;;2.30;;
16624;SDS011;8426;48.496;9.098;2022-11-21T17:27:31;8.30;;;3.40;;
16624;SDS011;8426;48.496;9.098;2022-11-21T17:32:34;6.88;;;3.08;;
16624;SDS011;8426;48.496;9.098;2022-11-21T17:37:37;8.27;;;3.00;;
16624;SDS011;8426;48.496;9.098;2022-11-21T17:42:42;12.17;;;4.90;;
16624;SDS011;8426;48.496;9.098;2022-11-21T17:47:47;4.77;;;2.63;;
16624;SDS011;8426;48.496;9.098;2022-11-21T17:52:50;7.57;;;2.25;;
16624;SDS011;8426;48.496;9.098;2022-11-21T17:57:55;4.40;;;1.63;;
16624;SDS011;8426;48.496;9.098;2022-11-21T18:02:59;7.60;;;2.90;;
16624;SDS011;8426;48.496;9.098;2022-11-21T18:08:03;10.70;;;2.35;;
16624;SDS011;8426;48.496;9.098;2022-11-21T18:13:08;4.72;;;1.98;;
16624;SDS011;8426;48.496;9.098;2022-11-21T18:18:12;2.67;;;1.40;;
16624;SDS011;8426;48.496;9.098;2022-11-21T18:23:16;7.85;;;2.03;;
16624;SDS011;8426;48.496;9.098;2022-11-21T18:28:20;3.58;;;1.63;;
16624;SDS011;8426;48.496;9.098;2022-11-21T18:33:24;7.45;;;2.28;;
16624;SDS011;8426;48.496;9.098;2022-11-21T18:38:29;7.03;;;1.50;;
16624;SDS011;8426;48.496;9.098;2022-11-21T18:43:51;2.95;;;1.60;;
16624;SDS011;8426;48.496;9.098;2022-11-21T18:48:55;4.35;;;1.58;;
16624;SDS011;8426;48.496;9.098;2022-11-21T18:54:07;2.88;;;1.67;;
16624;SDS011;8426;48.496;9.098;2022-11-21T18:59:13;2.13;;;1.13;;
16624;SDS011;8426;48.496;9.098;2022-11-21T19:04:16;4.07;;;1.48;;
16624;SDS011;8426;48.496;9.098;2022-11-21T19:09:20;11.00;;;1.15;;
16624;SDS011;8426;48.496;9.098;2022-11-21T19:14:31;4.28;;;1.20;;
16624;SDS011;8426;48.496;9.098;2022-11-21T19:19:34;5.07;;;1.33;;
16624;SDS011;8426;48.496;9.098;2022-11-21T19:24:38;8.32;;;2.75;;
16624;SDS011;8426;48.496;9.098;2022-11-21T19:29:44;13.93;;;5.43;;
16624;SDS011;8426;48.496;9.098;2022-11-21T19:34:51;11.40;;;4.60;;
16624;SDS011;8426;48.496;9.098;2022-11-21T19:39:55;9.43;;;3.65;;
16624;SDS011;8426;48.496;9.098;2022-11-21T19:45:01;5.15;;;2.40;;
16624;SDS011;8426;48.496;9.098;2022-11-21T19:50:08;9.38;;;2.30;;
16624;SDS011;8426;48.496;9.098;2022-11-21T19:55:12;2.35;;;1.40;;
16624;SDS011;8426;48.496;9.098;2022-11-21T20:00:24;3.67;;;1.60;;
16624;SDS011;8426;48.496;9.098;2022-11-21T20:05:39;5.57;;;1.30;;
16624;SDS011;8426;48.496;9.098;2022-11-21T20:10:44;4.30;;;1.95;;
16624;SDS011;8426;48.496;9.098;2022-11-21T20:15:49;3.15;;;1.45;;
16624;SDS011;8426;48.496;9.098;2022-11-21T20:20:52;4.77;;;1.30;;
16624;SDS011;8426;48.496;9.098;2022-11-21T20:25:56;2.50;;;1.30;;
16624;SDS011;8426;48.496;9.098;2022-11-21T20:31:04;4.75;;;1.40;;
16624;SDS011;8426;48.496;9.098;2022-11-21T20:36:10;3.13;;;1.30;;
16624;SDS011;8426;48.496;9.098;2022-11-21T20:41:17;4.75;;;1.70;;
16624;SDS011;8426;48.496;9.098;2022-11-21T20:46:23;3.47;;;1.40;;
16624;SDS011;8426;48.496;9.098;2022-11-21T20:51:28;2.22;;;1.30;;
16624;SDS011;8426;48.496;9.098;2022-11-21T20:56:51;5.47;;;1.90;;
16624;SDS011;8426;48.496;9.098;2022-11-21T21:01:56;4.35;;;1.33;;
16624;SDS011;8426;48.496;9.098;2022-11-21T21:07:00;2.50;;;1.25;;
16624;SDS011;8426;48.496;9.098;2022-11-21T21:12:04;8.35;;;1.75;;
16624;SDS011;8426;48.496;9.098;2022-11-21T21:17:09;4.93;;;2.20;;
16624;SDS011;8426;48.496;9.098;2022-11-21T21:22:15;7.38;;;2.42;;
16624;SDS011;8426;48.496;9.098;2022-11-21T21:27:19;11.73;;;4.03;;
16624;SDS011;8426;48.496;9.098;2022-11-21T21:32:26;6.95;;;2.90;;
16624;SDS011;8426;48.496;9.098;2022-11-21T21:37:31;9.25;;;3.97;;
16624;SDS011;8426;48.496;9.098;2022-11-21T21:42:34;7.28;;;3.13;;
16624;SDS011;8426;48.496;9.098;2022-11-21T21:47:42;5.18;;;2.10;;
16624;SDS011;8426;48.496;9.098;2022-11-21T21:52:45;4.55;;;1.30;;
16624;SDS011;8426;48.496;9.098;2022-11-21T21:57:59;2.00;;;1.15;;
16624;SDS011;8426;48.496;9.098;2022-11-21T22:03:05;3.42;;;1.40;;
16624;SDS011;8426;48.496;9.098;2022-11-21T22:08:13;6.15;;;1.33;;
16624;SDS011;8426;48.496;9.098;2022-11-21T22:13:16;3.22;;;1.50;;
16624;SDS011;8426;48.496;9.098;2022-11-21T22:18:22;4.75;;;1.70;;
16624;SDS011;8426;48.496;9.098;2022-11-21T22:23:29;2.33;;;1.40;;
16624;SDS011;8426;48.496;9.098;2022-11-21T22:28:38;4.95;;;1.63;;
16624;SDS011;8426;48.496;9.098;2022-11-21T22:33:46;3.50;;;1.60;;
16624;SDS011;8426;48.496;9.098;2022-11-21T22:38:53;5.85;;;1.45;;
16624;SDS011;8426;48.496;9.098;2022-11-21T22:44:00;2.88;;;1.23;;
16624;SDS011;8426;48.496;9.098;2022-11-21T22:49:05;2.67;;;1.38;;
16624;SDS011;8426;48.496;9.098;2022-11-21T22:54:08;7.45;;;3.92;;
16624;SDS011;8426;48.496;9.098;2022-11-21T22:59:15;4.50;;;3.22;;
16624;SDS011;8426;48.496;9.098;2022-11-21T23:04:23;7.35;;;3.42;;
16624;SDS011;8426;48.496;9.098;2022-11-21T23:09:28;8.38;;;3.40;;
16624;SDS011;8426;48.496;9.098;2022-11-21T23:14:33;8.82;;;3.95;;
16624;SDS011;8426;48.496;9.098;2022-11-21T23:19:38;8.88;;;3.95;;
16624;SDS011;8426;48.496;9.098;2022-11-21T23:24:42;11.48;;;3.72;;
16624;SDS011;8426;48.496;9.098;2022-11-21T23:29:47;7.93;;;3.47;;
16624;SDS011;8426;48.496;9.098;2022-11-21T23:34:52;6.57;;;3.30;;
16624;SDS011;8426;48.496;9.098;2022-11-21T23:39:55;6.38;;;3.38;;
16624;SDS011;8426;48.496;9.098;2022-11-21T23:45:00;6.85;;;3.00;;
16624;SDS011;8426;48.496;9.098;2022-11-21T23:50:05;8.15;;;3.67;;
16624;SDS011;8426;48.496;9.098;2022-11-21T23:55:09;4.10;;;2.47;;
